createdAt,value
2023-05-11T00:02:00.068Z,97420.81
2023-05-11T00:06:03.849Z,97415.13
2023-05-11T00:10:11.900Z,97423.53
2023-05-11T00:14:14.828Z,97416.44
2023-05-11T00:18:17.927Z,97413.84
2023-05-11T00:22:20.663Z,97406.34
2023-05-11T00:26:28.860Z,97398.97
2023-05-11T00:30:32.693Z,97405.75
2023-05-11T00:34:36.362Z,97399.81
2023-05-11T00:38:41.446Z,97397.75
2023-05-11T00:42:46.535Z,97400.47
2023-05-11T00:46:49.989Z,97395.97
2023-05-11T00:50:53.502Z,97405.66
2023-05-11T00:54:57.285Z,97402.75
2023-05-11T00:59:02.826Z,97394.09
2023-05-11T01:03:07.553Z,97395.28
2023-05-11T01:07:15.721Z,97399.06
2023-05-11T01:11:27.018Z,97402.88
2023-05-11T01:15:38.726Z,97394.38
2023-05-11T01:19:46.819Z,97397.34
2023-05-11T01:24:28.803Z,97398.53
2023-05-11T01:28:52.149Z,97398.09
2023-05-11T01:33:01.355Z,97401.06
2023-05-11T01:37:11.014Z,97400.44
2023-05-11T01:41:18.285Z,97406.03
2023-05-11T01:45:24.086Z,97404.78
2023-05-11T01:49:31.163Z,97405.75
2023-05-11T01:53:38.831Z,97400.91
2023-05-11T01:57:42.491Z,97411.56
2023-05-11T02:01:46.002Z,97408.44
2023-05-11T02:05:52.597Z,97413.03
2023-05-11T02:09:58.409Z,97396.72
2023-05-11T02:14:03.375Z,97404.91
2023-05-11T02:18:09.259Z,97404.09
2023-05-11T02:22:14.756Z,97406.09
2023-05-11T02:26:18.480Z,97402.03
2023-05-11T02:30:22.246Z,97405.81
2023-05-11T02:34:28.107Z,97410.44
2023-05-11T02:38:35.920Z,97418.44
2023-05-11T02:42:44.140Z,97411.56
2023-05-11T02:46:51.719Z,97408.78
2023-05-11T02:50:57.773Z,97408.00
2023-05-11T02:55:04.876Z,97406.34
2023-05-11T02:59:08.262Z,97404.09
2023-05-11T03:03:12.476Z,97396.41
2023-05-11T03:07:15.888Z,97395.44
2023-05-11T03:11:22.701Z,97395.63
2023-05-11T03:15:26.656Z,97396.81
2023-05-11T03:19:31.240Z,97392.38
2023-05-11T03:23:37.713Z,97397.59
2023-05-11T03:27:44.269Z,97401.03
2023-05-11T03:31:49.636Z,97402.66
2023-05-11T03:35:56.032Z,97401.47
2023-05-11T03:40:01.860Z,97403.91
2023-05-11T03:44:09.954Z,97400.16
2023-05-11T03:48:15.912Z,97399.16
2023-05-11T03:52:20.559Z,97392.91
2023-05-11T03:56:23.750Z,97392.56
2023-05-11T04:00:28.724Z,97395.66
2023-05-11T04:04:32.987Z,97399.88
2023-05-11T04:08:36.579Z,97398.69
2023-05-11T04:12:40.201Z,97398.34
2023-05-11T04:16:45.640Z,97398.97
2023-05-11T04:20:48.902Z,97405.50
2023-05-11T04:24:52.406Z,97405.13
2023-05-11T04:28:56.345Z,97404.78
2023-05-11T04:33:01.294Z,97401.63
2023-05-11T04:37:07.515Z,97405.69
2023-05-11T04:41:12.590Z,97405.31
2023-05-11T04:45:16.200Z,97402.53
2023-05-11T04:49:20.935Z,97403.31
2023-05-11T04:53:24.318Z,97405.31
2023-05-11T04:57:27.909Z,97412.16
2023-05-11T05:01:31.016Z,97409.53
2023-05-11T05:05:36.301Z,97411.16
2023-05-11T05:09:39.410Z,97404.13
2023-05-11T05:13:43.091Z,97405.56
2023-05-11T05:17:46.470Z,97409.00
2023-05-11T05:21:51.449Z,97420.72
2023-05-11T05:25:54.837Z,97420.28
2023-05-11T05:29:58.435Z,97431.47
2023-05-11T05:34:01.705Z,97432.63
2023-05-11T05:38:06.580Z,97429.81
2023-05-11T05:42:09.818Z,97426.25
2023-05-11T05:46:13.607Z,97435.25
2023-05-11T05:50:17.768Z,97434.44
2023-05-11T05:54:23.125Z,97446.16
2023-05-11T05:58:26.385Z,97443.38
2023-05-11T06:02:30.215Z,97444.97
2023-05-11T06:06:33.599Z,97446.88
2023-05-11T06:10:38.733Z,97443.56
2023-05-11T06:14:43.295Z,97449.31
2023-05-11T06:18:48.330Z,97447.66
2023-05-11T06:22:52.080Z,97447.03
2023-05-11T06:26:57.487Z,97446.81
2023-05-11T06:31:01.613Z,97447.75
2023-05-11T06:35:05.036Z,97445.56
2023-05-11T06:39:08.522Z,97437.31
2023-05-11T06:43:13.633Z,97432.72
2023-05-11T06:47:17.088Z,97433.38
2023-05-11T06:51:22.046Z,97431.44
2023-05-11T06:55:25.597Z,97429.97
2023-05-11T06:59:30.744Z,97427.03
2023-05-11T07:03:34.397Z,97425.81
2023-05-11T07:07:37.967Z,97425.41
2023-05-11T07:11:41.639Z,97422.94
2023-05-11T07:15:46.496Z,97425.00
2023-05-11T07:19:52.466Z,97420.31
2023-05-11T07:23:55.884Z,97422.28
2023-05-11T07:27:59.385Z,97419.00
2023-05-11T07:32:04.518Z,97427.69
2023-05-11T07:36:08.794Z,97425.19
2023-05-11T07:40:12.834Z,97425.56
2023-05-11T07:44:17.512Z,97419.81
2023-05-11T07:48:22.616Z,97418.16
2023-05-11T07:52:26.810Z,97424.66
2023-05-11T07:56:30.963Z,97420.59
2023-05-11T08:00:34.408Z,97419.38
2023-05-11T08:04:39.632Z,97415.78
2023-05-11T08:08:42.866Z,97412.94
2023-05-11T08:12:46.484Z,97422.25
2023-05-11T08:16:50.886Z,97412.22
2023-05-11T08:20:55.647Z,97405.97
2023-05-11T08:24:59.280Z,97401.34
2023-05-11T08:29:03.136Z,97402.47
2023-05-11T08:33:20.138Z,97398.38
2023-05-11T08:37:31.347Z,97392.13
2023-05-11T08:41:34.697Z,97392.94
2023-05-11T08:45:40.972Z,97390.88
2023-05-11T08:49:44.879Z,97391.69
2023-05-11T08:53:50.139Z,97379.00
2023-05-11T08:57:55.486Z,97385.56
2023-05-11T09:01:59.780Z,97389.03
2023-05-11T09:06:07.521Z,97387.53
2023-05-11T09:10:13.994Z,97387.97
2023-05-11T09:14:17.632Z,97387.06
2023-05-11T09:18:21.176Z,97377.25
2023-05-11T09:22:24.277Z,97381.75
2023-05-11T09:26:29.953Z,97382.22
2023-05-11T09:30:36.160Z,97377.94
2023-05-11T09:34:43.112Z,97378.16
2023-05-11T09:38:47.373Z,97373.91
2023-05-11T09:42:52.340Z,97369.69
2023-05-11T09:47:13.379Z,97372.09
2023-05-11T09:51:21.407Z,97366.44
2023-05-11T09:55:25.441Z,97359.31
2023-05-11T09:59:51.283Z,97364.63
2023-05-11T10:04:02.672Z,97349.66
2023-05-11T10:08:09.831Z,97350.13
2023-05-11T10:12:14.653Z,97342.63
2023-05-11T10:16:21.943Z,97342.28
2023-05-11T10:20:26.320Z,97346.63
2023-05-11T10:24:30.244Z,97342.81
2023-05-11T10:28:33.768Z,97342.53
2023-05-11T10:32:39.451Z,97339.34
2023-05-11T10:36:43.358Z,97347.72
2023-05-11T10:40:49.110Z,97330.88
2023-05-11T10:45:23.589Z,97333.91
2023-05-11T10:49:51.720Z,97337.94
2023-05-11T10:54:07.996Z,97342.78
2023-05-11T10:58:17.274Z,97334.81
2023-05-11T11:02:21.139Z,97325.84
2023-05-11T11:06:26.154Z,97327.31
2023-05-11T11:10:35.212Z,97328.50
2023-05-11T11:14:58.306Z,97324.03
2023-05-11T11:19:46.298Z,97319.69
2023-05-11T11:23:51.470Z,97325.03
2023-05-11T11:28:00.622Z,97315.00
2023-05-11T11:32:29.231Z,97316.06
2023-05-11T11:37:04.326Z,97318.78
2023-05-11T11:41:11.711Z,97321.38
2023-05-11T11:45:33.348Z,97317.06
2023-05-11T11:49:40.605Z,97312.78
2023-05-11T11:54:09.289Z,97322.50
2023-05-11T11:58:14.756Z,97312.13
2023-05-11T12:02:18.500Z,97320.19
2023-05-11T12:06:24.451Z,97317.09
2023-05-11T12:10:30.246Z,97319.75
2023-05-11T12:14:36.617Z,97312.50
2023-05-11T12:18:40.099Z,97312.72
2023-05-11T12:22:45.105Z,97304.78
2023-05-11T12:26:48.395Z,97306.94
2023-05-11T12:30:59.100Z,97303.94
2023-05-11T12:35:06.607Z,97298.41
2023-05-11T12:39:10.465Z,97295.31
2023-05-11T12:43:19.360Z,97297.06
2023-05-11T12:47:24.446Z,97295.34
2023-05-11T12:51:47.420Z,97295.69
2023-05-11T12:55:59.475Z,97290.63
2023-05-11T13:00:13.321Z,97290.19
2023-05-11T13:04:18.770Z,97279.88
2023-05-11T13:08:22.456Z,97283.44
2023-05-11T13:12:26.381Z,97283.97
2023-05-11T13:16:32.235Z,97280.03
2023-05-11T13:20:38.186Z,97274.50
2023-05-11T13:24:41.619Z,97283.38
2023-05-11T13:28:50.231Z,97284.84
2023-05-11T13:32:58.583Z,97286.88
2023-05-11T13:37:03.676Z,97280.56
2023-05-11T13:41:07.734Z,97277.47
2023-05-11T13:45:12.525Z,97277.44
2023-05-11T13:49:16.013Z,97272.69
2023-05-11T13:53:20.825Z,97268.97
2023-05-11T13:57:24.836Z,97269.47
2023-05-11T14:01:28.376Z,97274.06
2023-05-11T14:05:31.691Z,97266.03
2023-05-11T14:09:37.410Z,97265.25
2023-05-11T14:13:40.984Z,97272.41
2023-05-11T14:17:44.701Z,97261.31
2023-05-11T14:21:48.864Z,97269.22
2023-05-11T14:25:53.694Z,97262.97
2023-05-11T14:29:57.210Z,97263.03
2023-05-11T14:34:00.151Z,97265.84
2023-05-11T14:38:05.001Z,97261.81
2023-05-11T14:42:10.392Z,97267.53
2023-05-11T14:46:14.463Z,97271.03
2023-05-11T14:50:18.233Z,97258.72
2023-05-11T14:54:21.717Z,97265.63
2023-05-11T14:58:26.486Z,97265.44
2023-05-11T15:02:30.765Z,97272.53
2023-05-11T15:06:34.209Z,97269.66
2023-05-11T15:10:40.606Z,97271.13
2023-05-11T15:14:45.437Z,97269.69
2023-05-11T15:18:48.866Z,97271.72
2023-05-11T15:22:52.421Z,97276.16
2023-05-11T15:26:58.448Z,97277.78
2023-05-11T15:31:03.562Z,97278.38
2023-05-11T15:35:07.832Z,97279.78
2023-05-11T15:39:11.061Z,97286.66
2023-05-11T15:43:14.992Z,97288.22
2023-05-11T15:47:20.225Z,97290.66
2023-05-11T15:51:23.765Z,97286.59
2023-05-11T15:55:27.109Z,97283.75
2023-05-11T15:59:32.974Z,97288.19
2023-05-11T16:03:38.000Z,97293.41
2023-05-11T16:07:41.647Z,97292.53
2023-05-11T16:11:46.173Z,97293.50
2023-05-11T16:15:50.106Z,97296.13
2023-05-11T16:19:55.114Z,97296.06
2023-05-11T16:23:59.760Z,97299.69
2023-05-11T16:28:04.087Z,97291.97
2023-05-11T16:32:08.320Z,97301.41
2023-05-11T16:36:13.609Z,97304.81
2023-05-11T16:40:19.934Z,97303.97
2023-05-11T16:44:23.418Z,97300.50
2023-05-11T16:48:28.032Z,97304.06
2023-05-11T16:52:33.812Z,97299.81
2023-05-11T16:56:38.058Z,97293.69
2023-05-11T17:00:41.453Z,97290.84
2023-05-11T17:04:45.557Z,97298.47
2023-05-11T17:08:49.931Z,97306.09
2023-05-11T17:12:53.282Z,97303.81
2023-05-11T17:16:56.316Z,97312.06
2023-05-11T17:20:59.964Z,97305.56
2023-05-11T17:25:06.596Z,97309.41
2023-05-11T17:29:10.451Z,97308.94
2023-05-11T17:33:14.294Z,97322.03
2023-05-11T17:37:30.593Z,97322.59
2023-05-11T17:41:35.816Z,97331.66
2023-05-11T17:45:41.763Z,97334.00
2023-05-11T17:49:45.318Z,97329.34
2023-05-11T17:53:49.929Z,97341.19
2023-05-11T17:57:55.202Z,97341.56
2023-05-11T18:01:59.320Z,97347.19
2023-05-11T18:06:04.920Z,97345.91
2023-05-11T18:10:10.084Z,97349.91
2023-05-11T18:14:15.423Z,97352.88
2023-05-11T18:18:20.056Z,97358.66
2023-05-11T18:22:25.376Z,97358.25
2023-05-11T18:26:29.351Z,97360.03
2023-05-11T18:30:36.417Z,97368.91
2023-05-11T18:34:41.486Z,97359.63
2023-05-11T18:38:45.640Z,97364.03
2023-05-11T18:42:49.217Z,97368.63
2023-05-11T18:46:54.082Z,97367.00
2023-05-11T18:50:58.147Z,97370.63
2023-05-11T18:55:01.747Z,97376.03
2023-05-11T18:59:06.377Z,97374.63
2023-05-11T19:03:11.164Z,97373.78
2023-05-11T19:07:15.479Z,97374.97
2023-05-11T19:11:19.984Z,97376.97
2023-05-11T19:15:24.034Z,97387.78
2023-05-11T19:19:29.291Z,97379.31
2023-05-11T19:23:35.670Z,97390.16
2023-05-11T19:27:41.069Z,97392.13
2023-05-11T19:31:45.346Z,97385.66
2023-05-11T19:35:50.453Z,97382.38
2023-05-11T19:39:57.105Z,97393.03
2023-05-11T19:44:06.155Z,97398.44
2023-05-11T19:48:09.851Z,97393.22
2023-05-11T19:52:14.729Z,97408.13
2023-05-11T19:56:18.257Z,97407.28
2023-05-11T20:00:25.254Z,97404.06
2023-05-11T20:04:28.809Z,97407.66
2023-05-11T20:08:41.307Z,97407.66
2023-05-11T20:12:44.534Z,97408.66
2023-05-11T20:16:49.560Z,97412.09
2023-05-11T20:20:53.777Z,97407.22
2023-05-11T20:24:59.316Z,97409.00
2023-05-11T20:29:03.301Z,97406.41
2023-05-11T20:37:13.185Z,97398.53
2023-05-11T20:41:17.799Z,97402.16
2023-05-11T20:45:22.293Z,97402.97
2023-05-11T20:49:38.225Z,97396.13
2023-05-11T20:53:43.483Z,97388.28
2023-05-11T20:57:48.652Z,97387.25
2023-05-11T21:01:52.149Z,97387.44
2023-05-11T21:05:56.303Z,97392.69
2023-05-11T21:10:01.117Z,97381.44
2023-05-11T21:14:05.950Z,97386.66
2023-05-11T21:18:10.003Z,97386.84
2023-05-11T21:22:13.442Z,97386.84
2023-05-11T21:26:16.824Z,97380.00
2023-05-11T21:30:21.822Z,97382.59
2023-05-11T21:34:25.501Z,97374.13
2023-05-11T21:38:28.695Z,97375.91
2023-05-11T21:42:35.290Z,97373.63
2023-05-11T21:46:39.931Z,97372.84
2023-05-11T21:50:43.804Z,97374.81
2023-05-11T21:54:47.084Z,97373.38
2023-05-11T21:58:50.793Z,97378.59
2023-05-11T22:02:55.566Z,97368.31
2023-05-11T22:07:01.579Z,97371.94
2023-05-11T22:11:05.356Z,97375.53
2023-05-11T22:15:10.176Z,97373.91
2023-05-11T22:19:15.076Z,97373.09
2023-05-11T22:23:19.516Z,97369.84
2023-05-11T22:27:23.425Z,97372.66
2023-05-11T22:31:27.722Z,97371.00
2023-05-11T22:35:32.711Z,97370.41
2023-05-11T22:39:36.136Z,97374.97
2023-05-11T22:43:39.820Z,97370.09
2023-05-11T22:47:43.568Z,97363.25
2023-05-11T22:51:49.923Z,97354.00
2023-05-11T22:55:53.648Z,97364.63
2023-05-11T22:59:57.513Z,97359.09
2023-05-11T23:04:01.273Z,97367.78
2023-05-11T23:08:05.893Z,97360.75
2023-05-11T23:12:09.840Z,97367.94
2023-05-11T23:16:15.818Z,97354.22
2023-05-11T23:20:19.153Z,97356.84
2023-05-11T23:24:24.881Z,97345.44
2023-05-11T23:28:28.669Z,97347.41
2023-05-11T23:32:31.913Z,97342.16
2023-05-11T23:36:35.240Z,97338.56
2023-05-11T23:40:40.597Z,97332.53
2023-05-11T23:44:44.072Z,97340.38
2023-05-11T23:48:47.596Z,97343.00
2023-05-11T23:52:51.252Z,97343.78
2023-05-11T23:56:56.860Z,97343.78
